Tri Cities Regional Tn Va Airport
KTRI : now visible

Airfield :











YOU CAN JOIN US ON...

 
LOGIN :

Register | Disclaimer

   EN    FR    IT 

 









Legend :    VFR   Marginal VFR   IFR   Intensive IFR   Very Intensive IFR
Visi :
Ceiling :
>= 8 km
>= 3000ft
5 to 8 km
1000 to 3000 ft
1500m to 5 km
500 to 1000 ft
800 to 1500m
200 to 500 ft
< 800m
< 200 ft
Symbols :   Thunderstorms  Fog  Heavy snow  Heavy precipitations  Wind > 20 kt







- Airport Elevation : 1519 ft
- IATA code : TRI


KTRI - Tri Cities Regional Tn Va

CURRENT METAR :
  • 181653Z 21009KT 10SM SCT250 27/08 A2991 RMK AO2 SLP107 T02670083

EXPIRED METARs :
  • 181553Z 10SM SCT250 25/10 A2994 RMK AO2 SLP118 T02500100
  • 181453Z VRB03KT 10SM FEW140 BKN250 22/10 A2996 RMK AO2 SLP124 T02220100 50000

TAF KTRI
Valid from the 18 at 12:00 until the 19 at 12:00 UTC


181120Z 1812/1912 VRB03KT P6SM BKN150
FM181500 23007KT P6SM SCT200
FM181800 20013G23KT P6SM SCT120 BKN200
FM190100 18010G17KT P6SM SCT080 BKN150
FM190900 16012G20KT P6SM VCSH SCT060 OVC100
KZTL FIR / North America



MET'MAP, your aeronautical weather chart ! - Copyright ORBIFLY December 2007 - Disclaimer

ORBIFLY MET'MAP TEAM :

Programming & Development : Alexandra Zaïnal
Concept & Development : Baudouin d'Aumeries
Co-Development & Prog : Marc-Olivier Méhu
Technical & hardware support : Manuel Goepfert

Contact : metmap@orbifly.com




SOURCES & CREDITS :

   NOAA       Earth
Advisory